createdAt,value
2023-06-29T00:00:48.190Z,15.01
2023-06-29T00:03:18.851Z,15.07
2023-06-29T00:05:47.312Z,15.05
2023-06-29T00:08:15.290Z,15.05
2023-06-29T00:10:43.502Z,15.05
2023-06-29T00:13:11.370Z,15.07
2023-06-29T00:15:39.425Z,15.11
2023-06-29T00:18:10.255Z,15.09
2023-06-29T00:20:38.489Z,15.11
2023-06-29T00:23:06.467Z,15.12
2023-06-29T00:25:35.025Z,15.10
2023-06-29T00:28:03.615Z,14.83
2023-06-29T00:30:32.038Z,14.70
2023-06-29T00:33:00.008Z,14.62
2023-06-29T00:35:28.244Z,14.45
2023-06-29T00:37:56.384Z,14.60
2023-06-29T00:40:24.919Z,14.58
2023-06-29T00:42:54.287Z,14.62
2023-06-29T00:45:22.401Z,14.55
2023-06-29T00:47:50.934Z,14.56
2023-06-29T00:50:19.126Z,14.46
2023-06-29T00:52:49.024Z,14.52
2023-06-29T00:55:17.055Z,14.64
2023-06-29T00:57:45.243Z,14.65
2023-06-29T01:00:13.712Z,14.77
2023-06-29T01:02:42.527Z,14.81
2023-06-29T01:05:12.539Z,14.69
2023-06-29T01:07:51.604Z,14.70
2023-06-29T01:10:24.964Z,14.58
2023-06-29T01:12:54.772Z,14.68
2023-06-29T01:15:24.170Z,14.53
2023-06-29T01:17:56.290Z,14.67
2023-06-29T01:20:27.401Z,14.61
2023-06-29T01:23:06.498Z,14.65
2023-06-29T01:25:37.467Z,14.79
2023-06-29T01:28:09.775Z,14.84
2023-06-29T01:30:51.243Z,14.84
2023-06-29T01:33:22.880Z,14.74
2023-06-29T01:35:55.217Z,14.74
2023-06-29T01:38:31.792Z,14.74
2023-06-29T01:41:02.741Z,14.82
2023-06-29T01:43:33.068Z,14.87
2023-06-29T01:46:01.261Z,14.92
2023-06-29T01:48:29.729Z,14.79
2023-06-29T01:50:58.218Z,14.80
2023-06-29T01:53:26.225Z,14.84
2023-06-29T01:55:54.199Z,14.85
2023-06-29T01:58:22.386Z,14.75
2023-06-29T02:00:50.739Z,14.77
2023-06-29T02:03:18.690Z,14.77
2023-06-29T02:05:46.848Z,14.78
2023-06-29T02:08:15.176Z,14.83
2023-06-29T02:10:43.291Z,14.89
2023-06-29T02:13:11.430Z,14.92
2023-06-29T02:15:40.316Z,14.79
2023-06-29T02:18:08.400Z,14.74
2023-06-29T02:20:36.455Z,14.85
2023-06-29T02:23:04.428Z,14.79
2023-06-29T02:25:32.468Z,14.77
2023-06-29T02:28:00.526Z,14.83
2023-06-29T02:30:28.490Z,14.87
2023-06-29T02:32:56.577Z,14.87
2023-06-29T02:35:25.089Z,14.85
2023-06-29T02:37:53.219Z,14.94
2023-06-29T02:40:21.675Z,14.91
2023-06-29T02:42:50.469Z,14.93
2023-06-29T02:45:18.557Z,14.71
2023-06-29T02:47:46.646Z,14.87
2023-06-29T02:52:25.687Z,14.92
2023-06-29T02:54:54.076Z,14.95
2023-06-29T02:57:22.346Z,15.00
2023-06-29T02:59:50.480Z,15.03
2023-06-29T03:02:18.764Z,14.97
2023-06-29T03:04:46.902Z,15.05
2023-06-29T03:07:14.946Z,15.12
2023-06-29T03:09:43.006Z,15.11
2023-06-29T03:12:11.381Z,15.13
2023-06-29T03:14:39.394Z,15.17
2023-06-29T03:17:09.416Z,15.16
2023-06-29T03:19:37.610Z,15.17
2023-06-29T03:22:05.738Z,15.16
2023-06-29T03:24:33.898Z,15.15
2023-06-29T03:27:02.079Z,15.15
2023-06-29T03:29:30.224Z,15.17
2023-06-29T03:32:01.233Z,15.08
2023-06-29T03:34:29.349Z,15.08
2023-06-29T03:36:57.532Z,15.18
2023-06-29T03:39:27.337Z,15.17
2023-06-29T03:41:55.527Z,15.25
2023-06-29T03:44:23.704Z,15.27
2023-06-29T03:46:52.823Z,15.32
2023-06-29T03:49:20.999Z,15.37
2023-06-29T03:51:49.127Z,15.37
2023-06-29T03:54:17.469Z,15.41
2023-06-29T03:56:45.537Z,15.40
2023-06-29T03:59:13.532Z,15.45
2023-06-29T04:01:41.515Z,15.36
2023-06-29T04:04:09.704Z,15.39
2023-06-29T04:06:37.847Z,15.40
2023-06-29T04:09:05.804Z,15.43
2023-06-29T04:11:33.808Z,15.30
2023-06-29T04:14:02.014Z,15.35
2023-06-29T04:16:30.308Z,15.38
2023-06-29T04:18:58.664Z,15.40
2023-06-29T04:21:26.880Z,15.16
2023-06-29T04:23:55.082Z,15.20
2023-06-29T04:26:23.841Z,15.00
2023-06-29T04:28:52.140Z,15.11
2023-06-29T04:31:20.360Z,15.18
2023-06-29T04:33:48.521Z,15.21
2023-06-29T04:36:18.763Z,15.17
2023-06-29T04:38:47.376Z,15.23
2023-06-29T04:41:15.347Z,15.30
2023-06-29T04:43:43.673Z,15.21
2023-06-29T04:46:11.637Z,15.13
2023-06-29T04:48:39.833Z,15.29
2023-06-29T04:51:07.928Z,15.32
2023-06-29T04:53:37.073Z,15.29
2023-06-29T04:56:05.247Z,15.30
2023-06-29T04:58:33.257Z,15.33
2023-06-29T05:01:01.853Z,15.32
2023-06-29T05:03:29.954Z,15.35
2023-06-29T05:05:57.853Z,15.42
2023-06-29T05:08:25.903Z,15.46
2023-06-29T05:10:54.246Z,15.53
2023-06-29T05:13:23.725Z,15.50
2023-06-29T05:15:53.163Z,15.48
2023-06-29T05:18:22.067Z,15.50
2023-06-29T05:20:51.374Z,15.46
2023-06-29T05:23:19.929Z,15.42
2023-06-29T05:25:47.920Z,15.46
2023-06-29T05:28:16.212Z,15.34
2023-06-29T05:30:44.140Z,15.56
2023-06-29T05:33:12.202Z,15.61
2023-06-29T05:35:40.269Z,15.70
2023-06-29T05:38:08.452Z,15.82
2023-06-29T05:40:44.080Z,15.92
2023-06-29T05:43:12.289Z,16.16
2023-06-29T05:45:40.477Z,16.19
2023-06-29T05:48:08.438Z,16.36
2023-06-29T05:50:36.610Z,16.60
2023-06-29T05:53:05.480Z,16.64
2023-06-29T05:55:33.544Z,16.87
2023-06-29T05:58:01.514Z,17.11
2023-06-29T06:00:29.467Z,18.28
2023-06-29T06:02:57.766Z,19.76
2023-06-29T06:05:25.902Z,20.94
2023-06-29T06:07:53.890Z,22.40
2023-06-29T06:10:22.042Z,23.47
2023-06-29T06:12:49.983Z,23.03
2023-06-29T06:15:18.131Z,22.90
2023-06-29T06:17:46.124Z,24.02
2023-06-29T06:20:14.527Z,24.64
2023-06-29T06:22:42.588Z,25.49
2023-06-29T06:25:10.530Z,26.44
2023-06-29T06:27:38.600Z,27.48
2023-06-29T06:30:07.676Z,28.33
2023-06-29T06:32:35.767Z,29.05
2023-06-29T06:35:06.082Z,29.54
2023-06-29T06:37:34.345Z,29.77
2023-06-29T06:40:04.641Z,29.79
2023-06-29T06:42:32.619Z,30.13
2023-06-29T06:45:07.309Z,30.69
2023-06-29T06:47:37.121Z,28.95
2023-06-29T06:50:05.846Z,28.89
2023-06-29T06:52:33.912Z,28.73
2023-06-29T06:55:02.715Z,28.20
2023-06-29T06:57:32.715Z,27.07
2023-06-29T07:00:00.552Z,27.19
2023-06-29T07:02:28.648Z,28.23
2023-06-29T07:04:56.691Z,27.76
2023-06-29T07:07:27.861Z,28.82
2023-06-29T07:09:56.264Z,29.23
2023-06-29T07:12:24.346Z,29.90
2023-06-29T07:14:52.380Z,29.57
2023-06-29T07:17:20.466Z,28.67
2023-06-29T07:24:51.594Z,26.17
2023-06-29T07:27:20.010Z,25.32
2023-06-29T07:29:48.645Z,23.89
2023-06-29T07:32:16.977Z,25.32
2023-06-29T07:34:44.936Z,26.18
2023-06-29T07:37:12.912Z,26.88
2023-06-29T07:39:40.861Z,28.20
2023-06-29T07:42:08.910Z,27.99
2023-06-29T07:44:36.882Z,27.99
2023-06-29T07:47:05.592Z,27.87
2023-06-29T07:49:33.822Z,27.59
2023-06-29T07:52:02.083Z,26.41
2023-06-29T07:54:30.125Z,25.47
2023-06-29T07:59:29.079Z,24.23
2023-06-29T08:01:57.081Z,23.61
2023-06-29T08:06:56.121Z,22.72
2023-06-29T08:09:24.273Z,22.52
2023-06-29T08:11:52.452Z,22.24
2023-06-29T08:14:20.415Z,22.24
2023-06-29T08:16:48.687Z,22.18
2023-06-29T08:19:16.918Z,22.18
2023-06-29T08:21:48.807Z,22.14
2023-06-29T08:24:17.844Z,22.05
2023-06-29T08:26:46.199Z,22.06
2023-06-29T08:29:14.372Z,22.09
2023-06-29T08:31:42.458Z,22.25
2023-06-29T08:34:10.620Z,22.03
2023-06-29T08:36:38.712Z,21.93
2023-06-29T08:39:07.016Z,21.78
2023-06-29T08:41:35.887Z,21.83
2023-06-29T08:44:05.850Z,21.56
2023-06-29T08:46:37.593Z,21.76
2023-06-29T08:49:09.135Z,21.65
2023-06-29T08:51:44.868Z,21.88
2023-06-29T08:54:14.136Z,22.06
2023-06-29T08:56:42.732Z,22.04
2023-06-29T08:59:11.094Z,22.22
2023-06-29T09:01:39.601Z,22.22
2023-06-29T09:04:07.865Z,22.37
2023-06-29T09:06:36.049Z,22.25
2023-06-29T09:09:05.167Z,22.47
2023-06-29T09:11:35.661Z,22.55
2023-06-29T09:14:08.459Z,22.45
2023-06-29T09:16:37.479Z,22.58
2023-06-29T09:19:05.894Z,22.29
2023-06-29T09:21:35.012Z,22.06
2023-06-29T09:24:04.797Z,22.01
2023-06-29T09:26:32.976Z,21.86
2023-06-29T09:29:05.110Z,21.86
2023-06-29T09:31:37.157Z,22.12
2023-06-29T09:34:20.247Z,22.12
2023-06-29T09:36:50.040Z,22.13
2023-06-29T09:39:19.070Z,22.09
2023-06-29T09:41:49.090Z,21.77
2023-06-29T09:44:22.193Z,21.79
2023-06-29T09:49:22.707Z,21.87
2023-06-29T09:52:04.772Z,21.93
2023-06-29T09:54:36.543Z,21.86
2023-06-29T09:57:05.323Z,21.74
2023-06-29T09:59:35.470Z,21.73
2023-06-29T10:02:05.448Z,21.72
2023-06-29T10:04:33.721Z,21.78
2023-06-29T10:07:07.986Z,21.46
2023-06-29T10:09:41.097Z,21.48
2023-06-29T10:12:11.779Z,21.72
2023-06-29T10:14:42.779Z,21.74
2023-06-29T10:17:21.334Z,21.64
2023-06-29T10:19:51.380Z,21.96
2023-06-29T10:22:21.659Z,21.88
2023-06-29T10:25:03.246Z,21.98
2023-06-29T10:27:32.581Z,22.16
2023-06-29T10:30:05.668Z,22.17
2023-06-29T10:32:40.256Z,22.29
2023-06-29T10:35:14.020Z,22.22
2023-06-29T10:37:51.939Z,22.15
2023-06-29T10:40:24.515Z,22.37
2023-06-29T10:42:57.580Z,22.28
2023-06-29T10:45:28.407Z,22.45
2023-06-29T10:47:59.516Z,22.29
2023-06-29T10:50:45.172Z,22.36
2023-06-29T10:53:17.942Z,22.58
2023-06-29T10:56:06.239Z,22.58
2023-06-29T10:58:38.831Z,22.51
2023-06-29T11:01:07.029Z,22.81
2023-06-29T11:03:36.410Z,23.00
2023-06-29T11:06:05.643Z,23.00
2023-06-29T11:08:33.977Z,22.93
2023-06-29T11:11:16.015Z,22.73
2023-06-29T11:13:44.290Z,22.59
2023-06-29T11:16:14.191Z,22.52
2023-06-29T11:18:49.560Z,22.63
2023-06-29T11:21:20.861Z,22.75
2023-06-29T11:23:52.476Z,22.92
2023-06-29T11:26:22.098Z,22.89
2023-06-29T11:28:51.214Z,22.80
2023-06-29T11:31:21.107Z,22.88
2023-06-29T11:33:53.547Z,23.01
2023-06-29T11:36:31.463Z,23.01
2023-06-29T11:39:08.795Z,23.09
2023-06-29T11:41:38.801Z,23.23
2023-06-29T11:44:09.109Z,23.33
2023-06-29T11:46:41.190Z,23.36
2023-06-29T11:49:10.437Z,23.54
2023-06-29T11:51:43.569Z,23.44
2023-06-29T11:54:12.015Z,23.55
2023-06-29T11:56:43.889Z,23.56
2023-06-29T11:59:14.237Z,23.56
2023-06-29T12:01:44.831Z,23.37
2023-06-29T12:04:16.387Z,23.39
2023-06-29T12:06:54.853Z,23.42
2023-06-29T12:09:30.743Z,23.27
2023-06-29T12:12:05.750Z,23.33
2023-06-29T12:14:34.882Z,23.47
2023-06-29T12:19:36.218Z,23.55
2023-06-29T12:22:13.638Z,23.67
2023-06-29T12:24:42.156Z,23.57
2023-06-29T12:27:10.161Z,23.53
2023-06-29T12:29:39.891Z,23.57
2023-06-29T12:32:08.842Z,23.59
2023-06-29T12:34:37.059Z,23.55
2023-06-29T12:37:05.232Z,23.71
2023-06-29T12:39:33.239Z,23.82
2023-06-29T12:42:01.868Z,23.79
2023-06-29T12:44:30.179Z,23.74
2023-06-29T12:46:58.694Z,23.73
2023-06-29T12:49:28.166Z,23.59
2023-06-29T12:51:56.426Z,23.47
2023-06-29T12:54:25.671Z,23.44
2023-06-29T12:56:53.685Z,23.34
2023-06-29T12:59:22.097Z,23.36
2023-06-29T13:01:50.880Z,23.33
2023-06-29T13:04:19.876Z,23.40
2023-06-29T13:06:48.171Z,23.17
2023-06-29T13:09:16.684Z,23.26
2023-06-29T13:11:45.855Z,23.28
2023-06-29T13:14:14.703Z,23.35
2023-06-29T13:16:43.263Z,23.33
2023-06-29T13:19:11.400Z,23.42
2023-06-29T13:21:39.380Z,23.35
2023-06-29T13:24:09.431Z,23.21
2023-06-29T13:26:37.844Z,23.23
2023-06-29T13:29:06.113Z,22.99
2023-06-29T13:31:34.288Z,23.12
2023-06-29T13:34:02.576Z,23.24
2023-06-29T13:36:30.831Z,23.14
2023-06-29T13:38:58.932Z,22.93
2023-06-29T13:41:39.779Z,22.93
2023-06-29T13:44:10.615Z,22.71
2023-06-29T13:46:41.966Z,22.55
2023-06-29T13:49:10.084Z,22.44
2023-06-29T13:51:38.330Z,22.45
2023-06-29T13:54:07.583Z,22.31
2023-06-29T13:56:39.241Z,22.28
2023-06-29T13:59:10.151Z,22.24
2023-06-29T14:01:40.885Z,22.41
2023-06-29T14:04:11.751Z,22.65
2023-06-29T14:06:45.860Z,22.45
2023-06-29T14:09:17.496Z,22.31
2023-06-29T14:11:46.115Z,22.33
2023-06-29T14:14:14.259Z,22.22
2023-06-29T14:16:44.315Z,22.40
2023-06-29T14:19:12.877Z,22.41
2023-06-29T14:21:41.722Z,22.54
2023-06-29T14:24:09.820Z,22.58
2023-06-29T14:26:38.498Z,22.74
2023-06-29T14:29:16.755Z,22.69
2023-06-29T14:31:48.118Z,22.76
2023-06-29T14:34:17.460Z,22.82
2023-06-29T14:36:46.416Z,22.72
2023-06-29T14:39:14.998Z,22.63
2023-06-29T14:41:55.117Z,22.53
2023-06-29T14:44:24.824Z,22.57
2023-06-29T14:46:53.515Z,22.54
2023-06-29T14:49:22.081Z,22.66
2023-06-29T14:51:51.037Z,22.43
2023-06-29T14:54:20.583Z,22.27
2023-06-29T14:56:49.196Z,22.30
2023-06-29T14:59:18.063Z,22.37
2023-06-29T15:01:47.076Z,22.45
2023-06-29T15:04:15.609Z,22.44
2023-06-29T15:06:44.798Z,22.54
2023-06-29T15:09:13.516Z,22.57
2023-06-29T15:11:42.089Z,22.54
2023-06-29T15:14:10.430Z,22.57
2023-06-29T15:16:39.278Z,22.56
2023-06-29T15:19:07.312Z,22.57
2023-06-29T15:21:35.471Z,22.54
2023-06-29T15:24:03.584Z,22.62
2023-06-29T15:26:31.636Z,22.66
2023-06-29T15:28:59.950Z,22.59
2023-06-29T15:31:27.907Z,22.56
2023-06-29T15:33:56.379Z,22.51
2023-06-29T15:36:24.769Z,22.52
2023-06-29T15:38:53.628Z,22.54
2023-06-29T15:41:22.190Z,22.51
2023-06-29T15:43:56.411Z,22.42
2023-06-29T15:46:24.443Z,22.36
2023-06-29T15:48:52.472Z,22.36
2023-06-29T15:51:21.916Z,22.24
2023-06-29T15:53:50.499Z,22.05
2023-06-29T15:56:19.999Z,22.03
2023-06-29T15:58:48.140Z,22.15
2023-06-29T16:01:16.641Z,22.06
2023-06-29T16:03:45.337Z,22.17
2023-06-29T16:06:13.751Z,22.25
2023-06-29T16:08:42.569Z,22.26
2023-06-29T16:11:10.943Z,22.26
2023-06-29T16:13:39.461Z,22.26
2023-06-29T16:16:08.099Z,22.35
2023-06-29T16:18:36.813Z,22.27
2023-06-29T16:21:05.616Z,22.19
2023-06-29T16:23:34.455Z,22.24
2023-06-29T16:26:04.008Z,22.23
2023-06-29T16:28:32.959Z,22.15
2023-06-29T16:31:02.573Z,22.24
2023-06-29T16:33:31.333Z,22.10
2023-06-29T16:36:00.205Z,22.18
2023-06-29T16:38:29.112Z,22.13
2023-06-29T16:40:58.132Z,22.05
2023-06-29T16:43:27.085Z,22.13
2023-06-29T16:45:55.234Z,22.12
2023-06-29T16:48:23.967Z,22.10
2023-06-29T16:50:52.597Z,22.14
2023-06-29T16:53:21.169Z,22.07
2023-06-29T16:55:49.881Z,22.02
2023-06-29T16:58:18.826Z,21.94
2023-06-29T17:00:47.804Z,21.85
2023-06-29T17:03:16.149Z,21.81
2023-06-29T17:05:44.868Z,21.72
2023-06-29T17:08:13.814Z,21.66
2023-06-29T17:10:42.279Z,21.53
2023-06-29T17:13:10.732Z,21.50
2023-06-29T17:15:39.795Z,21.45
2023-06-29T17:18:08.508Z,21.32
2023-06-29T17:20:36.821Z,21.30
2023-06-29T17:23:05.284Z,21.06
2023-06-29T17:25:33.622Z,20.94
2023-06-29T17:28:01.933Z,20.74
2023-06-29T17:30:30.203Z,20.65
2023-06-29T17:32:58.843Z,20.57
2023-06-29T17:35:27.745Z,20.38
2023-06-29T17:37:56.254Z,20.44
2023-06-29T17:40:24.656Z,20.15
2023-06-29T17:42:53.404Z,20.31
2023-06-29T17:45:21.619Z,20.27
2023-06-29T17:47:50.040Z,20.07
2023-06-29T17:50:18.659Z,20.09
2023-06-29T17:52:49.977Z,20.03
2023-06-29T17:55:19.770Z,19.95
2023-06-29T17:57:48.532Z,19.86
2023-06-29T18:00:17.831Z,19.75
2023-06-29T18:02:47.076Z,19.69
2023-06-29T18:05:15.901Z,19.63
2023-06-29T18:07:44.326Z,19.69
2023-06-29T18:10:12.637Z,19.53
2023-06-29T18:12:41.181Z,19.48
2023-06-29T18:15:10.352Z,19.50
2023-06-29T18:17:39.312Z,19.31
2023-06-29T18:20:09.029Z,19.30
2023-06-29T18:22:37.775Z,19.36
2023-06-29T18:25:06.300Z,19.32
2023-06-29T18:27:34.523Z,19.27
2023-06-29T18:30:03.007Z,19.14
2023-06-29T18:32:32.361Z,18.92
2023-06-29T18:35:01.137Z,18.97
2023-06-29T18:37:29.537Z,18.72
2023-06-29T18:39:58.155Z,18.89
2023-06-29T18:42:26.497Z,18.85
2023-06-29T18:44:55.081Z,18.68
2023-06-29T18:47:24.061Z,18.67
2023-06-29T18:49:53.304Z,18.46
2023-06-29T18:52:22.161Z,18.44
2023-06-29T18:54:57.018Z,18.43
2023-06-29T18:57:26.221Z,18.45
2023-06-29T18:59:54.815Z,18.44
2023-06-29T19:02:23.441Z,18.38
2023-06-29T19:04:52.174Z,18.36
2023-06-29T19:07:20.909Z,18.35
2023-06-29T19:09:50.830Z,17.92
2023-06-29T19:12:19.469Z,17.68
2023-06-29T19:14:48.205Z,17.66
2023-06-29T19:17:16.918Z,17.31
2023-06-29T19:19:45.540Z,17.00
2023-06-29T19:22:14.372Z,17.17
2023-06-29T19:24:42.739Z,17.23
2023-06-29T19:27:11.431Z,17.31
2023-06-29T19:29:40.818Z,17.28
2023-06-29T19:32:10.440Z,17.38
2023-06-29T19:34:39.193Z,17.39
2023-06-29T19:37:07.888Z,17.32
2023-06-29T19:39:36.527Z,17.37
2023-06-29T19:42:06.836Z,17.33
2023-06-29T19:44:35.523Z,17.38
2023-06-29T19:47:04.944Z,17.40
2023-06-29T19:49:33.820Z,17.41
2023-06-29T19:52:02.652Z,17.35
2023-06-29T19:54:31.084Z,17.26
2023-06-29T19:57:00.338Z,17.17
2023-06-29T19:59:29.376Z,17.04
2023-06-29T20:01:58.707Z,16.96
2023-06-29T20:04:27.579Z,16.99
2023-06-29T20:06:56.555Z,17.00
2023-06-29T20:09:25.266Z,16.96
2023-06-29T20:11:54.356Z,16.88
2023-06-29T20:14:22.996Z,16.81
2023-06-29T20:16:52.340Z,16.53
2023-06-29T20:19:20.720Z,16.75
2023-06-29T20:21:49.270Z,16.67
2023-06-29T20:24:17.747Z,16.64
2023-06-29T20:26:46.498Z,16.69
2023-06-29T20:29:16.624Z,16.51
2023-06-29T20:31:45.333Z,16.52
2023-06-29T20:34:15.286Z,16.45
2023-06-29T20:36:43.795Z,16.43
2023-06-29T20:39:12.330Z,16.44
2023-06-29T20:41:40.850Z,16.48
2023-06-29T20:44:15.608Z,16.43
2023-06-29T20:46:44.434Z,16.39
2023-06-29T20:49:12.785Z,16.37
2023-06-29T20:51:40.758Z,16.27
2023-06-29T20:54:09.351Z,16.10
2023-06-29T20:56:37.999Z,15.85
2023-06-29T20:59:06.426Z,15.52
2023-06-29T21:01:37.596Z,15.46
2023-06-29T21:04:05.923Z,15.44
2023-06-29T21:06:35.563Z,15.44
2023-06-29T21:09:04.936Z,15.67
2023-06-29T21:11:38.728Z,15.82
2023-06-29T21:14:09.710Z,15.70
2023-06-29T21:16:40.380Z,15.75
2023-06-29T21:19:09.344Z,15.79
2023-06-29T21:21:38.108Z,15.78
2023-06-29T21:24:07.078Z,15.82
2023-06-29T21:26:35.194Z,15.75
2023-06-29T21:29:17.378Z,15.75
2023-06-29T21:31:53.276Z,15.78
2023-06-29T21:34:21.761Z,15.66
2023-06-29T21:36:50.184Z,15.72
2023-06-29T21:39:18.267Z,15.62
2023-06-29T21:41:46.400Z,15.60
2023-06-29T21:44:14.349Z,15.58
2023-06-29T21:46:42.425Z,15.56
2023-06-29T21:49:10.642Z,15.44
2023-06-29T21:51:38.960Z,15.54
2023-06-29T21:54:09.666Z,15.50
2023-06-29T21:56:39.322Z,15.40
2023-06-29T21:59:07.839Z,15.41
2023-06-29T22:01:35.943Z,15.41
2023-06-29T22:04:04.137Z,15.39
2023-06-29T22:06:32.488Z,15.32
2023-06-29T22:09:04.367Z,15.20
2023-06-29T22:11:32.745Z,15.08
2023-06-29T22:14:01.203Z,15.02
2023-06-29T22:16:30.083Z,15.00
2023-06-29T22:18:59.973Z,15.05
2023-06-29T22:21:28.501Z,15.03
2023-06-29T22:23:56.996Z,15.02
2023-06-29T22:26:25.868Z,15.00
2023-06-29T22:28:54.077Z,14.96
2023-06-29T22:31:22.284Z,14.80
2023-06-29T22:33:50.423Z,14.89
2023-06-29T22:36:19.549Z,14.81
2023-06-29T22:38:47.813Z,14.81
2023-06-29T22:41:15.823Z,14.82
2023-06-29T22:43:43.964Z,14.80
2023-06-29T22:46:11.989Z,14.78
2023-06-29T22:48:39.966Z,14.74
2023-06-29T22:51:08.150Z,14.73
2023-06-29T22:53:36.056Z,14.63
2023-06-29T22:56:04.207Z,14.63
2023-06-29T22:58:32.190Z,14.62
2023-06-29T23:01:00.220Z,14.61
2023-06-29T23:03:28.293Z,14.66
2023-06-29T23:05:56.533Z,14.61
2023-06-29T23:08:26.853Z,14.60
2023-06-29T23:10:54.891Z,14.54
2023-06-29T23:13:25.728Z,14.49
2023-06-29T23:15:53.811Z,14.44
2023-06-29T23:18:21.855Z,14.41
2023-06-29T23:20:49.823Z,14.32
2023-06-29T23:23:17.917Z,14.22
2023-06-29T23:25:46.370Z,14.23
2023-06-29T23:28:17.092Z,14.27
2023-06-29T23:30:45.334Z,14.25
2023-06-29T23:33:13.242Z,14.29
2023-06-29T23:35:41.365Z,14.28
2023-06-29T23:38:09.671Z,14.26
2023-06-29T23:40:37.993Z,14.19
2023-06-29T23:43:06.326Z,14.12
2023-06-29T23:45:37.113Z,14.04
2023-06-29T23:48:05.639Z,13.99
2023-06-29T23:50:33.595Z,13.98
2023-06-29T23:53:01.622Z,13.94
2023-06-29T23:55:29.724Z,13.92
2023-06-29T23:57:58.082Z,13.85
